This is the latest recevied weather packets stored in our database for station/object EA3FHP. If no packets are shown the sender has not sent any weather packets the latest 10 day(s).
| Time | Temp. | Humidity | Pressure | Rain* | Wind** | Luminosity | Snow |
|---|---|---|---|---|---|---|---|
| 1787853603 | 27.22° C | 50% | 1013.6 hPa | 0 mm | - | - | - |
| 1787853004 | 27.22° C | 50% | 1013.5 hPa | 0 mm | - | - | - |
| 1787852403 | 27.78° C | 50% | 1013 hPa | 0 mm | - | - | - |
| 1787851803 | 27.78° C | 50% | 1013.7 hPa | 0 mm | - | - | - |
| 1787851203 | 28.33° C | 49% | 1013.5 hPa | 0 mm | - | - | - |
| 1787850603 | 28.89° C | 49% | 1013.3 hPa | 0 mm | - | - | - |
| 1787850005 | 29.44° C | 47% | 1013.2 hPa | 0 mm | - | - | - |
| 1787849404 | 30° C | 46% | 1013.1 hPa | 0 mm | - | - | - |
| 1787848803 | 30.56° C | 46% | 1013 hPa | 0 mm | - | - | - |
| 1787848203 | 30.56° C | 47% | 1012.7 hPa | 0 mm | - | - | - |
| 1787847604 | 31.11° C | 49% | 1012.9 hPa | 0 mm | - | - | - |
| 1787847003 | 31.67° C | 48% | 1012.9 hPa | 0 mm | - | - | - |
| 1787846405 | 31.67° C | 47% | 1012.9 hPa | 0 mm | - | - | - |
| 1787845803 | 31.67° C | 47% | 1012.9 hPa | 0 mm | - | - | - |
| 1787845203 | 31.67° C | 49% | 1013 hPa | 0 mm | - | - | - |
| 1787844603 | 32.22° C | 48% | 1013 hPa | 0 mm | - | - | - |
| 1787844003 | 32.22° C | 48% | 1013.4 hPa | 0 mm | - | - | - |
| 1787843403 | 32.78° C | 47% | 1013.2 hPa | 0 mm | - | - | - |
| 1787842803 | 33.33° C | 47% | 1013.2 hPa | 0 mm | - | - | - |
| 1787842203 | 33.33° C | 43% | 1013 hPa | 0 mm | - | - | - |
| 1787841603 | 34.44° C | 37% | 1013.1 hPa | 0 mm | - | - | - |
| 1787841003 | 33.33° C | 45% | 1013 hPa | 0 mm | - | - | - |
| 1787840403 | 33.33° C | 47% | 1013.3 hPa | 0 mm | - | - | - |
| 1787839803 | 33.89° C | 45% | 1013.3 hPa | 0 mm | - | - | - |
| 1787839203 | 33.89° C | 45% | 1013.3 hPa | 0 mm | - | - | - |
* Rain latest hour (hover to see other rain measurements)
** Current wind speed in m/s (hover to see current wind gust speed)